sensor_id;sensor_type;location;lat;lon;timestamp;P1;durP1;ratioP1;P2;durP2;ratioP2
31308;SDS011;17936;52.446;10.840;2022-09-27T00:00:01;1.55;;;0.80;;
31308;SDS011;17936;52.446;10.840;2022-09-27T00:02:28;1.75;;;1.05;;
31308;SDS011;17936;52.446;10.840;2022-09-27T00:04:53;2.80;;;0.80;;
31308;SDS011;17936;52.446;10.840;2022-09-27T00:07:20;1.02;;;0.70;;
31308;SDS011;17936;52.446;10.840;2022-09-27T00:09:45;1.63;;;0.50;;
31308;SDS011;17936;52.446;10.840;2022-09-27T00:12:11;1.27;;;0.80;;
31308;SDS011;17936;52.446;10.840;2022-09-27T00:14:36;1.77;;;0.60;;
31308;SDS011;17936;52.446;10.840;2022-09-27T00:17:02;2.65;;;0.77;;
31308;SDS011;17936;52.446;10.840;2022-09-27T00:19:28;1.00;;;0.70;;
31308;SDS011;17936;52.446;10.840;2022-09-27T00:21:53;1.10;;;0.77;;
31308;SDS011;17936;52.446;10.840;2022-09-27T00:24:20;0.55;;;0.50;;
31308;SDS011;17936;52.446;10.840;2022-09-27T00:26:47;2.08;;;0.60;;
31308;SDS011;17936;52.446;10.840;2022-09-27T00:29:13;0.52;;;0.40;;
31308;SDS011;17936;52.446;10.840;2022-09-27T00:31:40;0.80;;;0.60;;
31308;SDS011;17936;52.446;10.840;2022-09-27T00:34:06;5.15;;;0.73;;
31308;SDS011;17936;52.446;10.840;2022-09-27T00:36:32;0.85;;;0.55;;
31308;SDS011;17936;52.446;10.840;2022-09-27T00:38:59;1.83;;;0.52;;
31308;SDS011;17936;52.446;10.840;2022-09-27T00:41:26;3.65;;;0.80;;
31308;SDS011;17936;52.446;10.840;2022-09-27T00:43:53;1.55;;;0.70;;
31308;SDS011;17936;52.446;10.840;2022-09-27T00:46:32;1.80;;;0.90;;
31308;SDS011;17936;52.446;10.840;2022-09-27T00:49:16;1.92;;;0.90;;
31308;SDS011;17936;52.446;10.840;2022-09-27T00:51:47;1.17;;;0.88;;
31308;SDS011;17936;52.446;10.840;2022-09-27T00:54:16;1.60;;;0.88;;
31308;SDS011;17936;52.446;10.840;2022-09-27T00:56:45;1.33;;;0.85;;
31308;SDS011;17936;52.446;10.840;2022-09-27T00:59:15;1.17;;;0.43;;
31308;SDS011;17936;52.446;10.840;2022-09-27T01:01:44;0.73;;;0.55;;
31308;SDS011;17936;52.446;10.840;2022-09-27T01:04:10;1.65;;;0.90;;
31308;SDS011;17936;52.446;10.840;2022-09-27T01:06:38;0.95;;;0.60;;
31308;SDS011;17936;52.446;10.840;2022-09-27T01:09:04;1.05;;;0.90;;
31308;SDS011;17936;52.446;10.840;2022-09-27T01:22:44;3.22;;;1.00;;
31308;SDS011;17936;52.446;10.840;2022-09-27T01:25:42;2.15;;;0.80;;
31308;SDS011;17936;52.446;10.840;2022-09-27T01:30:44;1.27;;;0.80;;
31308;SDS011;17936;52.446;10.840;2022-09-27T01:33:41;2.65;;;1.10;;
31308;SDS011;17936;52.446;10.840;2022-09-27T01:36:31;1.47;;;0.93;;
31308;SDS011;17936;52.446;10.840;2022-09-27T01:39:08;1.45;;;0.77;;
31308;SDS011;17936;52.446;10.840;2022-09-27T01:42:03;4.38;;;0.88;;
31308;SDS011;17936;52.446;10.840;2022-09-27T01:44:48;2.88;;;1.08;;
31308;SDS011;17936;52.446;10.840;2022-09-27T01:47:21;3.30;;;0.90;;
31308;SDS011;17936;52.446;10.840;2022-09-27T01:49:59;2.17;;;0.70;;
31308;SDS011;17936;52.446;10.840;2022-09-27T01:52:36;2.38;;;0.88;;
31308;SDS011;17936;52.446;10.840;2022-09-27T01:55:32;2.05;;;0.82;;
31308;SDS011;17936;52.446;10.840;2022-09-27T01:58:06;4.53;;;0.82;;
31308;SDS011;17936;52.446;10.840;2022-09-27T02:00:39;1.67;;;0.88;;
31308;SDS011;17936;52.446;10.840;2022-09-27T02:03:19;1.90;;;0.60;;
31308;SDS011;17936;52.446;10.840;2022-09-27T02:05:50;2.40;;;0.50;;
31308;SDS011;17936;52.446;10.840;2022-09-27T02:10:52;1.95;;;0.73;;
31308;SDS011;17936;52.446;10.840;2022-09-27T02:13:23;1.15;;;0.70;;
31308;SDS011;17936;52.446;10.840;2022-09-27T02:16:04;1.75;;;0.80;;
31308;SDS011;17936;52.446;10.840;2022-09-27T02:18:42;0.90;;;0.68;;
31308;SDS011;17936;52.446;10.840;2022-09-27T02:21:15;2.38;;;0.85;;
31308;SDS011;17936;52.446;10.840;2022-09-27T02:23:49;1.55;;;0.70;;
31308;SDS011;17936;52.446;10.840;2022-09-27T02:26:21;2.17;;;0.90;;
31308;SDS011;17936;52.446;10.840;2022-09-27T02:28:56;2.28;;;0.70;;
31308;SDS011;17936;52.446;10.840;2022-09-27T02:31:37;4.22;;;0.90;;
31308;SDS011;17936;52.446;10.840;2022-09-27T02:34:04;1.38;;;0.80;;
31308;SDS011;17936;52.446;10.840;2022-09-27T02:36:35;1.30;;;0.70;;
31308;SDS011;17936;52.446;10.840;2022-09-27T02:39:01;1.60;;;0.98;;
31308;SDS011;17936;52.446;10.840;2022-09-27T02:41:27;1.10;;;0.77;;
31308;SDS011;17936;52.446;10.840;2022-09-27T02:43:55;1.05;;;0.60;;
31308;SDS011;17936;52.446;10.840;2022-09-27T02:46:33;1.50;;;0.70;;
31308;SDS011;17936;52.446;10.840;2022-09-27T02:49:03;0.40;;;0.40;;
31308;SDS011;17936;52.446;10.840;2022-09-27T02:54:40;0.98;;;0.60;;
31308;SDS011;17936;52.446;10.840;2022-09-27T02:57:22;2.00;;;0.77;;
31308;SDS011;17936;52.446;10.840;2022-09-27T03:00:06;1.80;;;0.55;;
31308;SDS011;17936;52.446;10.840;2022-09-27T03:02:48;0.82;;;0.60;;
31308;SDS011;17936;52.446;10.840;2022-09-27T03:05:27;1.13;;;0.40;;
31308;SDS011;17936;52.446;10.840;2022-09-27T03:07:56;1.75;;;0.52;;
31308;SDS011;17936;52.446;10.840;2022-09-27T03:10:23;0.88;;;0.63;;
31308;SDS011;17936;52.446;10.840;2022-09-27T03:12:51;1.92;;;0.80;;
31308;SDS011;17936;52.446;10.840;2022-09-27T03:15:18;1.15;;;0.70;;
31308;SDS011;17936;52.446;10.840;2022-09-27T03:17:44;2.15;;;0.68;;
31308;SDS011;17936;52.446;10.840;2022-09-27T03:20:09;2.80;;;0.70;;
31308;SDS011;17936;52.446;10.840;2022-09-27T03:22:35;3.03;;;0.80;;
31308;SDS011;17936;52.446;10.840;2022-09-27T03:25:02;0.68;;;0.50;;
31308;SDS011;17936;52.446;10.840;2022-09-27T03:27:28;8.25;;;0.40;;
31308;SDS011;17936;52.446;10.840;2022-09-27T03:29:54;0.77;;;0.57;;
31308;SDS011;17936;52.446;10.840;2022-09-27T03:32:19;0.85;;;0.57;;
31308;SDS011;17936;52.446;10.840;2022-09-27T03:34:45;3.10;;;0.50;;
31308;SDS011;17936;52.446;10.840;2022-09-27T03:37:10;1.27;;;0.73;;
31308;SDS011;17936;52.446;10.840;2022-09-27T03:39:36;1.13;;;0.80;;
31308;SDS011;17936;52.446;10.840;2022-09-27T03:42:01;2.28;;;0.73;;
31308;SDS011;17936;52.446;10.840;2022-09-27T03:44:27;1.95;;;0.95;;
31308;SDS011;17936;52.446;10.840;2022-09-27T03:46:52;1.20;;;0.88;;
31308;SDS011;17936;52.446;10.840;2022-09-27T03:49:18;1.58;;;0.77;;
31308;SDS011;17936;52.446;10.840;2022-09-27T03:51:43;1.83;;;0.85;;
31308;SDS011;17936;52.446;10.840;2022-09-27T03:54:09;0.80;;;0.80;;
31308;SDS011;17936;52.446;10.840;2022-09-27T03:56:34;2.83;;;0.82;;
31308;SDS011;17936;52.446;10.840;2022-09-27T03:59:00;1.55;;;0.90;;
31308;SDS011;17936;52.446;10.840;2022-09-27T04:01:26;1.45;;;0.88;;
31308;SDS011;17936;52.446;10.840;2022-09-27T04:03:52;1.23;;;0.85;;
31308;SDS011;17936;52.446;10.840;2022-09-27T04:06:18;5.70;;;1.10;;
31308;SDS011;17936;52.446;10.840;2022-09-27T04:08:44;1.33;;;0.80;;
31308;SDS011;17936;52.446;10.840;2022-09-27T04:11:11;4.32;;;1.25;;
31308;SDS011;17936;52.446;10.840;2022-09-27T04:13:37;1.00;;;0.80;;
31308;SDS011;17936;52.446;10.840;2022-09-27T04:16:02;1.58;;;1.05;;
31308;SDS011;17936;52.446;10.840;2022-09-27T04:18:28;4.22;;;1.33;;
31308;SDS011;17936;52.446;10.840;2022-09-27T04:20:53;1.40;;;0.90;;
31308;SDS011;17936;52.446;10.840;2022-09-27T04:23:19;1.90;;;1.38;;
31308;SDS011;17936;52.446;10.840;2022-09-27T04:25:45;7.85;;;1.48;;
31308;SDS011;17936;52.446;10.840;2022-09-27T04:28:10;8.80;;;1.17;;
31308;SDS011;17936;52.446;10.840;2022-09-27T04:30:36;1.95;;;1.13;;
31308;SDS011;17936;52.446;10.840;2022-09-27T04:33:03;4.40;;;1.25;;
31308;SDS011;17936;52.446;10.840;2022-09-27T04:35:28;1.33;;;1.13;;
31308;SDS011;17936;52.446;10.840;2022-09-27T04:38:13;1.50;;;1.08;;
31308;SDS011;17936;52.446;10.840;2022-09-27T04:40:38;2.05;;;1.15;;
31308;SDS011;17936;52.446;10.840;2022-09-27T04:43:05;5.03;;;1.38;;
31308;SDS011;17936;52.446;10.840;2022-09-27T04:45:30;3.22;;;1.20;;
31308;SDS011;17936;52.446;10.840;2022-09-27T04:47:55;1.52;;;1.23;;
31308;SDS011;17936;52.446;10.840;2022-09-27T04:50:21;3.08;;;0.98;;
31308;SDS011;17936;52.446;10.840;2022-09-27T04:52:50;1.30;;;1.00;;
31308;SDS011;17936;52.446;10.840;2022-09-27T04:55:17;1.45;;;0.90;;
31308;SDS011;17936;52.446;10.840;2022-09-27T04:57:44;2.10;;;0.90;;
31308;SDS011;17936;52.446;10.840;2022-09-27T05:00:10;1.48;;;0.93;;
31308;SDS011;17936;52.446;10.840;2022-09-27T05:02:35;1.10;;;0.80;;
31308;SDS011;17936;52.446;10.840;2022-09-27T05:05:01;4.07;;;1.20;;
31308;SDS011;17936;52.446;10.840;2022-09-27T05:07:26;1.75;;;1.00;;
31308;SDS011;17936;52.446;10.840;2022-09-27T05:09:52;1.30;;;1.00;;
31308;SDS011;17936;52.446;10.840;2022-09-27T05:12:19;3.22;;;1.17;;
31308;SDS011;17936;52.446;10.840;2022-09-27T05:14:44;2.28;;;1.15;;
31308;SDS011;17936;52.446;10.840;2022-09-27T05:17:10;1.88;;;1.10;;
31308;SDS011;17936;52.446;10.840;2022-09-27T05:19:36;1.52;;;1.10;;
31308;SDS011;17936;52.446;10.840;2022-09-27T05:22:05;2.30;;;1.02;;
31308;SDS011;17936;52.446;10.840;2022-09-27T05:24:31;3.40;;;1.02;;
31308;SDS011;17936;52.446;10.840;2022-09-27T05:26:57;8.43;;;1.55;;
31308;SDS011;17936;52.446;10.840;2022-09-27T05:29:24;2.85;;;1.45;;
31308;SDS011;17936;52.446;10.840;2022-09-27T05:31:49;9.95;;;1.55;;
31308;SDS011;17936;52.446;10.840;2022-09-27T05:34:15;6.93;;;1.60;;
31308;SDS011;17936;52.446;10.840;2022-09-27T05:36:43;3.13;;;1.52;;
31308;SDS011;17936;52.446;10.840;2022-09-27T05:39:11;7.20;;;1.63;;
31308;SDS011;17936;52.446;10.840;2022-09-27T05:41:37;4.93;;;1.42;;
31308;SDS011;17936;52.446;10.840;2022-09-27T05:44:04;3.95;;;1.90;;
31308;SDS011;17936;52.446;10.840;2022-09-27T05:46:29;2.42;;;1.42;;
31308;SDS011;17936;52.446;10.840;2022-09-27T05:48:55;5.35;;;1.85;;
31308;SDS011;17936;52.446;10.840;2022-09-27T05:51:20;4.72;;;1.80;;
31308;SDS011;17936;52.446;10.840;2022-09-27T05:53:46;5.00;;;1.70;;
31308;SDS011;17936;52.446;10.840;2022-09-27T05:56:11;3.03;;;1.67;;
31308;SDS011;17936;52.446;10.840;2022-09-27T05:58:37;7.15;;;2.10;;
31308;SDS011;17936;52.446;10.840;2022-09-27T06:01:05;5.65;;;1.85;;
31308;SDS011;17936;52.446;10.840;2022-09-27T06:03:32;3.22;;;1.70;;
31308;SDS011;17936;52.446;10.840;2022-09-27T06:06:00;2.85;;;1.60;;
31308;SDS011;17936;52.446;10.840;2022-09-27T06:08:29;5.03;;;1.70;;
31308;SDS011;17936;52.446;10.840;2022-09-27T06:10:59;6.20;;;2.30;;
31308;SDS011;17936;52.446;10.840;2022-09-27T06:13:28;4.97;;;2.08;;
31308;SDS011;17936;52.446;10.840;2022-09-27T06:15:53;4.45;;;2.33;;
31308;SDS011;17936;52.446;10.840;2022-09-27T06:18:19;5.05;;;2.55;;
31308;SDS011;17936;52.446;10.840;2022-09-27T06:20:44;6.82;;;2.40;;
31308;SDS011;17936;52.446;10.840;2022-09-27T06:25:37;4.43;;;2.15;;
31308;SDS011;17936;52.446;10.840;2022-09-27T06:28:03;3.60;;;2.40;;
31308;SDS011;17936;52.446;10.840;2022-09-27T06:30:29;4.07;;;2.70;;
31308;SDS011;17936;52.446;10.840;2022-09-27T06:32:56;6.07;;;2.40;;
31308;SDS011;17936;52.446;10.840;2022-09-27T06:35:22;4.28;;;2.30;;
31308;SDS011;17936;52.446;10.840;2022-09-27T06:37:48;6.18;;;2.38;;
31308;SDS011;17936;52.446;10.840;2022-09-27T06:40:15;5.15;;;2.53;;
31308;SDS011;17936;52.446;10.840;2022-09-27T06:42:41;5.15;;;1.85;;
31308;SDS011;17936;52.446;10.840;2022-09-27T06:45:06;2.78;;;1.77;;
31308;SDS011;17936;52.446;10.840;2022-09-27T06:47:35;3.83;;;2.10;;
31308;SDS011;17936;52.446;10.840;2022-09-27T06:50:01;6.30;;;1.92;;
31308;SDS011;17936;52.446;10.840;2022-09-27T06:52:31;3.33;;;2.20;;
31308;SDS011;17936;52.446;10.840;2022-09-27T06:54:57;4.25;;;1.77;;
31308;SDS011;17936;52.446;10.840;2022-09-27T06:57:23;3.88;;;1.92;;
31308;SDS011;17936;52.446;10.840;2022-09-27T07:00:08;3.00;;;1.92;;
31308;SDS011;17936;52.446;10.840;2022-09-27T07:02:54;4.85;;;1.42;;
31308;SDS011;17936;52.446;10.840;2022-09-27T07:05:24;2.47;;;1.88;;
31308;SDS011;17936;52.446;10.840;2022-09-27T07:07:51;4.03;;;1.58;;
31308;SDS011;17936;52.446;10.840;2022-09-27T07:10:20;2.58;;;1.33;;
31308;SDS011;17936;52.446;10.840;2022-09-27T07:12:45;6.97;;;2.15;;
31308;SDS011;17936;52.446;10.840;2022-09-27T07:15:14;4.65;;;2.00;;
31308;SDS011;17936;52.446;10.840;2022-09-27T07:17:39;4.85;;;2.20;;
31308;SDS011;17936;52.446;10.840;2022-09-27T07:20:06;6.00;;;2.10;;
31308;SDS011;17936;52.446;10.840;2022-09-27T07:22:33;5.05;;;2.53;;
31308;SDS011;17936;52.446;10.840;2022-09-27T07:25:03;3.70;;;1.77;;
31308;SDS011;17936;52.446;10.840;2022-09-27T07:27:30;3.83;;;1.73;;
31308;SDS011;17936;52.446;10.840;2022-09-27T07:29:56;3.17;;;2.00;;
31308;SDS011;17936;52.446;10.840;2022-09-27T07:32:22;4.68;;;2.03;;
31308;SDS011;17936;52.446;10.840;2022-09-27T07:34:47;9.63;;;2.22;;
31308;SDS011;17936;52.446;10.840;2022-09-27T07:37:13;5.97;;;2.50;;
31308;SDS011;17936;52.446;10.840;2022-09-27T07:39:38;6.25;;;2.92;;
31308;SDS011;17936;52.446;10.840;2022-09-27T07:42:04;5.22;;;2.05;;
31308;SDS011;17936;52.446;10.840;2022-09-27T07:44:30;4.93;;;2.47;;
31308;SDS011;17936;52.446;10.840;2022-09-27T07:46:56;6.70;;;2.60;;
31308;SDS011;17936;52.446;10.840;2022-09-27T07:49:22;7.15;;;2.75;;
31308;SDS011;17936;52.446;10.840;2022-09-27T07:51:48;8.63;;;2.63;;
31308;SDS011;17936;52.446;10.840;2022-09-27T07:54:13;5.88;;;2.72;;
31308;SDS011;17936;52.446;10.840;2022-09-27T07:56:39;8.10;;;3.22;;
31308;SDS011;17936;52.446;10.840;2022-09-27T07:59:04;6.75;;;2.70;;
31308;SDS011;17936;52.446;10.840;2022-09-27T08:01:30;6.15;;;2.75;;
31308;SDS011;17936;52.446;10.840;2022-09-27T08:03:55;7.15;;;2.83;;
31308;SDS011;17936;52.446;10.840;2022-09-27T08:06:22;5.63;;;2.70;;
31308;SDS011;17936;52.446;10.840;2022-09-27T08:08:49;7.70;;;2.53;;
31308;SDS011;17936;52.446;10.840;2022-09-27T08:11:15;7.78;;;3.13;;
31308;SDS011;17936;52.446;10.840;2022-09-27T08:13:42;9.80;;;3.35;;
31308;SDS011;17936;52.446;10.840;2022-09-27T08:16:08;5.20;;;3.08;;
31308;SDS011;17936;52.446;10.840;2022-09-27T08:18:35;5.63;;;3.15;;
31308;SDS011;17936;52.446;10.840;2022-09-27T08:21:01;7.05;;;2.80;;
31308;SDS011;17936;52.446;10.840;2022-09-27T08:23:26;4.60;;;2.20;;
31308;SDS011;17936;52.446;10.840;2022-09-27T08:25:52;10.88;;;2.83;;
31308;SDS011;17936;52.446;10.840;2022-09-27T08:28:18;4.53;;;2.63;;
31308;SDS011;17936;52.446;10.840;2022-09-27T08:30:46;5.80;;;2.17;;
31308;SDS011;17936;52.446;10.840;2022-09-27T08:33:12;4.32;;;2.33;;
31308;SDS011;17936;52.446;10.840;2022-09-27T08:35:38;4.53;;;2.45;;
31308;SDS011;17936;52.446;10.840;2022-09-27T08:38:03;8.25;;;2.92;;
31308;SDS011;17936;52.446;10.840;2022-09-27T08:40:52;4.32;;;2.70;;
31308;SDS011;17936;52.446;10.840;2022-09-27T08:46:45;5.85;;;1.95;;
31308;SDS011;17936;52.446;10.840;2022-09-27T08:49:13;9.32;;;2.10;;
31308;SDS011;17936;52.446;10.840;2022-09-27T08:51:42;6.30;;;2.40;;
31308;SDS011;17936;52.446;10.840;2022-09-27T08:54:15;7.40;;;2.25;;
31308;SDS011;17936;52.446;10.840;2022-09-27T08:56:47;5.35;;;2.08;;
31308;SDS011;17936;52.446;10.840;2022-09-27T08:59:16;4.05;;;1.60;;
31308;SDS011;17936;52.446;10.840;2022-09-27T09:01:50;2.53;;;1.30;;
31308;SDS011;17936;52.446;10.840;2022-09-27T09:04:26;4.00;;;1.55;;
31308;SDS011;17936;52.446;10.840;2022-09-27T09:07:05;4.88;;;1.52;;
31308;SDS011;17936;52.446;10.840;2022-09-27T09:12:21;4.85;;;1.10;;
31308;SDS011;17936;52.446;10.840;2022-09-27T09:23:59;3.75;;;1.42;;
31308;SDS011;17936;52.446;10.840;2022-09-27T09:34:35;9.15;;;1.77;;
31308;SDS011;17936;52.446;10.840;2022-09-27T09:37:10;5.10;;;1.58;;
31308;SDS011;17936;52.446;10.840;2022-09-27T09:39:41;4.70;;;1.48;;
31308;SDS011;17936;52.446;10.840;2022-09-27T09:42:14;4.10;;;1.58;;
31308;SDS011;17936;52.446;10.840;2022-09-27T09:45:17;7.30;;;1.40;;
31308;SDS011;17936;52.446;10.840;2022-09-27T09:48:06;5.22;;;1.48;;
31308;SDS011;17936;52.446;10.840;2022-09-27T09:50:40;5.43;;;1.60;;
31308;SDS011;17936;52.446;10.840;2022-09-27T09:53:16;4.20;;;1.52;;
31308;SDS011;17936;52.446;10.840;2022-09-27T09:56:06;5.72;;;1.90;;
31308;SDS011;17936;52.446;10.840;2022-09-27T09:58:53;3.90;;;1.48;;
31308;SDS011;17936;52.446;10.840;2022-09-27T10:01:29;4.45;;;1.75;;
31308;SDS011;17936;52.446;10.840;2022-09-27T10:04:00;4.85;;;2.42;;
31308;SDS011;17936;52.446;10.840;2022-09-27T10:06:26;4.38;;;2.00;;
31308;SDS011;17936;52.446;10.840;2022-09-27T10:08:54;4.47;;;2.15;;
31308;SDS011;17936;52.446;10.840;2022-09-27T10:11:21;3.92;;;2.25;;
31308;SDS011;17936;52.446;10.840;2022-09-27T10:13:49;4.78;;;2.88;;
31308;SDS011;17936;52.446;10.840;2022-09-27T10:16:16;5.20;;;3.10;;
31308;SDS011;17936;52.446;10.840;2022-09-27T10:18:44;9.70;;;3.38;;
31308;SDS011;17936;52.446;10.840;2022-09-27T10:21:12;4.88;;;3.03;;
31308;SDS011;17936;52.446;10.840;2022-09-27T10:26:34;5.65;;;2.45;;
31308;SDS011;17936;52.446;10.840;2022-09-27T10:29:23;6.45;;;2.92;;
31308;SDS011;17936;52.446;10.840;2022-09-27T10:31:54;3.15;;;1.95;;
31308;SDS011;17936;52.446;10.840;2022-09-27T10:34:34;3.95;;;2.35;;
31308;SDS011;17936;52.446;10.840;2022-09-27T10:37:14;7.45;;;2.70;;
31308;SDS011;17936;52.446;10.840;2022-09-27T10:39:41;6.57;;;2.90;;
31308;SDS011;17936;52.446;10.840;2022-09-27T10:42:21;4.70;;;2.55;;
31308;SDS011;17936;52.446;10.840;2022-09-27T10:44:56;5.30;;;3.13;;
31308;SDS011;17936;52.446;10.840;2022-09-27T10:47:22;4.72;;;2.35;;
31308;SDS011;17936;52.446;10.840;2022-09-27T10:49:50;3.75;;;2.22;;
31308;SDS011;17936;52.446;10.840;2022-09-27T10:52:20;10.35;;;3.38;;
31308;SDS011;17936;52.446;10.840;2022-09-27T10:54:54;5.95;;;2.53;;
31308;SDS011;17936;52.446;10.840;2022-09-27T10:57:25;4.95;;;3.03;;
31308;SDS011;17936;52.446;10.840;2022-09-27T10:59:57;9.10;;;3.20;;
31308;SDS011;17936;52.446;10.840;2022-09-27T11:02:36;7.70;;;3.17;;
31308;SDS011;17936;52.446;10.840;2022-09-27T11:05:05;10.48;;;3.88;;
31308;SDS011;17936;52.446;10.840;2022-09-27T11:07:38;7.88;;;3.50;;
31308;SDS011;17936;52.446;10.840;2022-09-27T11:10:27;5.18;;;2.70;;
31308;SDS011;17936;52.446;10.840;2022-09-27T11:13:05;5.00;;;2.42;;
31308;SDS011;17936;52.446;10.840;2022-09-27T11:16:01;4.07;;;2.38;;
31308;SDS011;17936;52.446;10.840;2022-09-27T11:19:01;3.42;;;2.13;;
31308;SDS011;17936;52.446;10.840;2022-09-27T11:24:38;4.75;;;2.75;;
31308;SDS011;17936;52.446;10.840;2022-09-27T11:30:10;3.90;;;2.00;;
31308;SDS011;17936;52.446;10.840;2022-09-27T11:32:46;2.83;;;2.05;;
31308;SDS011;17936;52.446;10.840;2022-09-27T11:35:43;3.03;;;1.77;;
31308;SDS011;17936;52.446;10.840;2022-09-27T11:38:30;2.30;;;1.48;;
31308;SDS011;17936;52.446;10.840;2022-09-27T11:46:39;2.60;;;1.30;;
31308;SDS011;17936;52.446;10.840;2022-09-27T11:49:21;4.47;;;1.67;;
31308;SDS011;17936;52.446;10.840;2022-09-27T11:55:04;2.45;;;1.30;;
31308;SDS011;17936;52.446;10.840;2022-09-27T12:00:29;4.00;;;1.35;;
31308;SDS011;17936;52.446;10.840;2022-09-27T12:03:17;2.40;;;1.10;;
31308;SDS011;17936;52.446;10.840;2022-09-27T12:06:08;5.07;;;1.20;;
31308;SDS011;17936;52.446;10.840;2022-09-27T12:08:55;1.63;;;1.08;;
31308;SDS011;17936;52.446;10.840;2022-09-27T12:11:43;1.83;;;0.85;;
31308;SDS011;17936;52.446;10.840;2022-09-27T12:14:23;1.27;;;0.53;;
31308;SDS011;17936;52.446;10.840;2022-09-27T12:16:53;0.40;;;0.40;;
31308;SDS011;17936;52.446;10.840;2022-09-27T12:19:25;2.88;;;0.70;;
31308;SDS011;17936;52.446;10.840;2022-09-27T12:22:01;2.20;;;0.70;;
31308;SDS011;17936;52.446;10.840;2022-09-27T12:24:30;1.70;;;0.65;;
31308;SDS011;17936;52.446;10.840;2022-09-27T12:26:58;2.17;;;0.90;;
31308;SDS011;17936;52.446;10.840;2022-09-27T12:29:33;2.13;;;0.98;;
31308;SDS011;17936;52.446;10.840;2022-09-27T12:32:10;3.10;;;0.98;;
31308;SDS011;17936;52.446;10.840;2022-09-27T12:38:09;3.83;;;0.77;;
31308;SDS011;17936;52.446;10.840;2022-09-27T12:40:28;1.75;;;0.80;;
31308;SDS011;17936;52.446;10.840;2022-09-27T12:42:59;1.30;;;0.60;;
31308;SDS011;17936;52.446;10.840;2022-09-27T12:45:36;1.90;;;1.00;;
31308;SDS011;17936;52.446;10.840;2022-09-27T12:48:38;0.47;;;0.47;;
31308;SDS011;17936;52.446;10.840;2022-09-27T12:51:30;1.33;;;0.50;;
31308;SDS011;17936;52.446;10.840;2022-09-27T12:57:02;2.78;;;0.90;;
31308;SDS011;17936;52.446;10.840;2022-09-27T12:59:55;4.43;;;1.90;;
31308;SDS011;17936;52.446;10.840;2022-09-27T13:02:46;2.10;;;0.77;;
31308;SDS011;17936;52.446;10.840;2022-09-27T13:05:44;5.13;;;0.90;;
31308;SDS011;17936;52.446;10.840;2022-09-27T13:08:34;1.80;;;0.85;;
31308;SDS011;17936;52.446;10.840;2022-09-27T13:11:16;1.15;;;0.30;;
31308;SDS011;17936;52.446;10.840;2022-09-27T13:13:54;2.40;;;0.55;;
31308;SDS011;17936;52.446;10.840;2022-09-27T13:16:22;3.70;;;0.40;;
31308;SDS011;17936;52.446;10.840;2022-09-27T13:18:50;2.15;;;0.40;;
31308;SDS011;17936;52.446;10.840;2022-09-27T13:24:30;1.05;;;0.20;;
31308;SDS011;17936;52.446;10.840;2022-09-27T13:29:52;0.10;;;0.10;;
31308;SDS011;17936;52.446;10.840;2022-09-27T13:35:37;1.73;;;0.25;;
31308;SDS011;17936;52.446;10.840;2022-09-27T13:38:03;0.55;;;0.32;;
31308;SDS011;17936;52.446;10.840;2022-09-27T13:40:30;2.20;;;0.50;;
31308;SDS011;17936;52.446;10.840;2022-09-27T13:43:03;1.40;;;0.40;;
31308;SDS011;17936;52.446;10.840;2022-09-27T13:51:43;2.35;;;0.55;;
31308;SDS011;17936;52.446;10.840;2022-09-27T13:56:58;3.05;;;0.47;;
31308;SDS011;17936;52.446;10.840;2022-09-27T13:59:26;0.98;;;0.47;;
31308;SDS011;17936;52.446;10.840;2022-09-27T14:04:40;1.20;;;0.40;;
31308;SDS011;17936;52.446;10.840;2022-09-27T14:07:11;1.58;;;0.30;;
31308;SDS011;17936;52.446;10.840;2022-09-27T14:09:41;1.92;;;0.50;;
31308;SDS011;17936;52.446;10.840;2022-09-27T14:12:11;1.77;;;0.50;;
31308;SDS011;17936;52.446;10.840;2022-09-27T14:14:43;1.65;;;0.32;;
31308;SDS011;17936;52.446;10.840;2022-09-27T14:17:11;0.82;;;0.52;;
31308;SDS011;17936;52.446;10.840;2022-09-27T14:19:41;1.48;;;0.32;;
31308;SDS011;17936;52.446;10.840;2022-09-27T14:22:15;0.57;;;0.40;;
31308;SDS011;17936;52.446;10.840;2022-09-27T14:24:48;2.60;;;0.50;;
31308;SDS011;17936;52.446;10.840;2022-09-27T14:29:58;3.92;;;0.60;;
31308;SDS011;17936;52.446;10.840;2022-09-27T14:32:29;0.45;;;0.32;;
31308;SDS011;17936;52.446;10.840;2022-09-27T14:35:31;2.08;;;0.32;;
31308;SDS011;17936;52.446;10.840;2022-09-27T14:38:10;2.03;;;0.55;;
31308;SDS011;17936;52.446;10.840;2022-09-27T14:40:41;4.07;;;0.50;;
31308;SDS011;17936;52.446;10.840;2022-09-27T14:43:12;2.42;;;0.40;;
31308;SDS011;17936;52.446;10.840;2022-09-27T14:45:42;3.60;;;0.35;;
31308;SDS011;17936;52.446;10.840;2022-09-27T14:48:16;1.05;;;0.30;;
31308;SDS011;17936;52.446;10.840;2022-09-27T14:50:51;1.58;;;0.40;;
31308;SDS011;17936;52.446;10.840;2022-09-27T14:53:29;1.92;;;0.40;;
31308;SDS011;17936;52.446;10.840;2022-09-27T14:56:00;0.93;;;0.30;;
31308;SDS011;17936;52.446;10.840;2022-09-27T14:58:27;1.48;;;0.40;;
31308;SDS011;17936;52.446;10.840;2022-09-27T15:00:54;0.93;;;0.25;;
31308;SDS011;17936;52.446;10.840;2022-09-27T15:03:25;1.30;;;0.20;;
31308;SDS011;17936;52.446;10.840;2022-09-27T15:05:55;4.20;;;0.43;;
31308;SDS011;17936;52.446;10.840;2022-09-27T15:08:23;0.17;;;0.10;;
31308;SDS011;17936;52.446;10.840;2022-09-27T15:10:51;3.30;;;0.50;;
31308;SDS011;17936;52.446;10.840;2022-09-27T15:13:18;0.93;;;0.40;;
31308;SDS011;17936;52.446;10.840;2022-09-27T15:15:44;2.60;;;0.57;;
31308;SDS011;17936;52.446;10.840;2022-09-27T15:18:31;1.42;;;0.73;;
31308;SDS011;17936;52.446;10.840;2022-09-27T15:21:03;1.50;;;0.77;;
31308;SDS011;17936;52.446;10.840;2022-09-27T15:23:40;1.90;;;0.73;;
31308;SDS011;17936;52.446;10.840;2022-09-27T15:26:12;3.45;;;0.90;;
31308;SDS011;17936;52.446;10.840;2022-09-27T15:28:50;2.10;;;0.60;;
31308;SDS011;17936;52.446;10.840;2022-09-27T15:31:17;3.38;;;0.70;;
31308;SDS011;17936;52.446;10.840;2022-09-27T15:33:53;1.35;;;0.60;;
31308;SDS011;17936;52.446;10.840;2022-09-27T15:39:17;4.30;;;0.60;;
31308;SDS011;17936;52.446;10.840;2022-09-27T15:42:10;2.50;;;0.70;;
31308;SDS011;17936;52.446;10.840;2022-09-27T15:44:42;1.23;;;0.60;;
31308;SDS011;17936;52.446;10.840;2022-09-27T15:49:56;1.20;;;0.60;;
31308;SDS011;17936;52.446;10.840;2022-09-27T15:52:41;1.45;;;0.68;;
31308;SDS011;17936;52.446;10.840;2022-09-27T15:55:11;1.70;;;0.60;;
31308;SDS011;17936;52.446;10.840;2022-09-27T15:57:37;3.55;;;0.50;;
31308;SDS011;17936;52.446;10.840;2022-09-27T16:00:04;3.90;;;0.80;;
31308;SDS011;17936;52.446;10.840;2022-09-27T16:02:30;2.33;;;0.55;;
31308;SDS011;17936;52.446;10.840;2022-09-27T16:04:56;1.67;;;0.50;;
31308;SDS011;17936;52.446;10.840;2022-09-27T16:07:21;3.25;;;0.68;;
31308;SDS011;17936;52.446;10.840;2022-09-27T16:09:46;5.22;;;1.92;;
31308;SDS011;17936;52.446;10.840;2022-09-27T16:12:14;1.80;;;0.80;;
31308;SDS011;17936;52.446;10.840;2022-09-27T16:14:40;2.45;;;1.08;;
31308;SDS011;17936;52.446;10.840;2022-09-27T16:17:06;8.13;;;3.20;;
31308;SDS011;17936;52.446;10.840;2022-09-27T16:19:31;5.40;;;2.20;;
31308;SDS011;17936;52.446;10.840;2022-09-27T16:21:57;2.53;;;1.27;;
31308;SDS011;17936;52.446;10.840;2022-09-27T16:24:22;1.63;;;0.80;;
31308;SDS011;17936;52.446;10.840;2022-09-27T16:26:49;1.88;;;0.88;;
31308;SDS011;17936;52.446;10.840;2022-09-27T16:29:15;1.10;;;0.75;;
31308;SDS011;17936;52.446;10.840;2022-09-27T16:31:41;4.50;;;0.70;;
31308;SDS011;17936;52.446;10.840;2022-09-27T16:34:09;1.60;;;1.00;;
31308;SDS011;17936;52.446;10.840;2022-09-27T16:36:35;2.67;;;1.10;;